createdAt,value
2023-01-23T00:01:05.135Z,3.13
2023-01-23T00:03:34.120Z,3.17
2023-01-23T00:06:05.160Z,4.07
2023-01-23T00:08:33.200Z,4.15
2023-01-23T00:11:00.823Z,3.53
2023-01-23T00:13:28.378Z,2.83
2023-01-23T00:15:55.959Z,3.40
2023-01-23T00:18:23.561Z,2.58
2023-01-23T00:20:51.857Z,1.65
2023-01-23T00:23:20.920Z,1.60
2023-01-23T00:25:48.545Z,2.75
2023-01-23T00:28:16.074Z,1.98
2023-01-23T00:30:45.741Z,2.85
2023-01-23T00:33:13.382Z,1.85
2023-01-23T00:35:41.238Z,1.60
2023-01-23T00:38:08.865Z,2.95
2023-01-23T00:40:37.796Z,2.53
2023-01-23T00:43:07.566Z,4.55
2023-01-23T00:45:36.358Z,3.92
2023-01-23T00:48:03.889Z,3.40
2023-01-23T00:50:31.586Z,1.52
2023-01-23T00:52:59.269Z,3.58
2023-01-23T00:55:26.850Z,2.47
2023-01-23T00:57:55.810Z,2.92
2023-01-23T01:00:23.551Z,2.35
2023-01-23T01:02:51.268Z,3.00
2023-01-23T01:05:19.120Z,2.45
2023-01-23T01:07:48.838Z,2.13
2023-01-23T01:10:16.846Z,6.28
2023-01-23T01:12:44.785Z,2.17
2023-01-23T01:15:14.316Z,6.15
2023-01-23T01:17:42.248Z,3.60
2023-01-23T01:20:10.762Z,2.38
2023-01-23T01:22:38.321Z,4.40
2023-01-23T01:25:06.754Z,4.85
2023-01-23T01:27:35.155Z,6.20
2023-01-23T01:30:04.615Z,3.42
2023-01-23T01:32:37.360Z,3.63
2023-01-23T01:35:06.208Z,3.92
2023-01-23T01:37:34.292Z,3.50
2023-01-23T01:40:01.986Z,3.47
2023-01-23T01:42:29.959Z,2.13
2023-01-23T01:44:59.666Z,2.30
2023-01-23T01:47:27.872Z,2.60
2023-01-23T01:50:00.774Z,5.03
2023-01-23T01:52:29.287Z,1.55
2023-01-23T01:54:59.776Z,2.17
2023-01-23T01:57:31.201Z,4.38
2023-01-23T02:00:01.255Z,2.42
2023-01-23T02:02:31.004Z,2.72
2023-01-23T02:05:02.672Z,2.40
2023-01-23T02:07:36.160Z,3.28
2023-01-23T02:10:05.401Z,3.85
2023-01-23T02:12:35.254Z,2.10
2023-01-23T02:15:05.165Z,4.13
2023-01-23T02:17:35.474Z,4.15
2023-01-23T02:20:13.757Z,3.55
2023-01-23T02:22:49.471Z,6.15
2023-01-23T02:25:23.471Z,4.63
2023-01-23T02:27:52.359Z,5.40
2023-01-23T02:30:21.410Z,4.97
2023-01-23T02:32:50.297Z,4.97
2023-01-23T02:35:25.409Z,3.17
2023-01-23T02:37:59.447Z,4.72
2023-01-23T02:40:32.043Z,4.90
2023-01-23T02:43:02.331Z,5.05
2023-01-23T02:45:30.770Z,5.13
2023-01-23T02:47:58.431Z,3.20
2023-01-23T02:50:25.972Z,3.13
2023-01-23T02:52:54.731Z,4.32
2023-01-23T02:55:22.608Z,3.70
2023-01-23T02:57:51.429Z,3.25
2023-01-23T03:00:20.676Z,4.90
2023-01-23T03:02:49.952Z,4.53
2023-01-23T03:05:17.827Z,2.75
2023-01-23T03:07:45.527Z,4.55
2023-01-23T03:10:13.323Z,5.28
2023-01-23T03:12:45.202Z,4.80
2023-01-23T03:15:12.826Z,5.25
2023-01-23T03:17:41.666Z,4.32
2023-01-23T03:20:10.715Z,3.72
2023-01-23T03:22:38.284Z,7.60
2023-01-23T03:25:09.347Z,5.55
2023-01-23T03:27:38.212Z,5.80
2023-01-23T03:30:16.018Z,5.35
2023-01-23T03:32:46.398Z,3.72
2023-01-23T03:35:16.797Z,6.57
2023-01-23T03:37:46.289Z,3.97
2023-01-23T03:40:35.950Z,6.78
2023-01-23T03:43:04.532Z,7.30
2023-01-23T03:45:33.641Z,4.38
2023-01-23T03:48:03.240Z,6.03
2023-01-23T03:50:31.484Z,5.88
2023-01-23T03:52:59.287Z,4.75
2023-01-23T03:55:27.097Z,4.22
2023-01-23T03:57:54.676Z,5.75
2023-01-23T04:00:27.379Z,3.72
2023-01-23T04:03:03.319Z,13.30
2023-01-23T04:05:31.065Z,4.13
2023-01-23T04:07:59.331Z,6.88
2023-01-23T04:10:27.481Z,6.68
2023-01-23T04:12:59.951Z,11.13
2023-01-23T04:15:27.694Z,5.78
2023-01-23T04:17:57.693Z,7.38
2023-01-23T04:20:27.881Z,7.32
2023-01-23T04:22:56.858Z,5.63
2023-01-23T04:25:24.685Z,8.23
2023-01-23T04:27:53.333Z,6.47
2023-01-23T04:30:21.626Z,5.53
2023-01-23T04:32:49.375Z,7.45
2023-01-23T04:35:19.350Z,4.10
2023-01-23T04:37:48.303Z,11.00
2023-01-23T04:40:16.018Z,5.32
2023-01-23T04:42:52.410Z,4.43
2023-01-23T04:45:33.262Z,5.43
2023-01-23T04:48:20.019Z,5.00
2023-01-23T04:50:49.082Z,5.53
2023-01-23T04:53:18.258Z,8.88
2023-01-23T04:55:48.614Z,4.68
2023-01-23T04:58:17.899Z,4.32
2023-01-23T05:00:45.524Z,19.17
2023-01-23T05:03:14.486Z,6.68
2023-01-23T05:05:46.370Z,6.88
2023-01-23T05:08:14.782Z,7.03
2023-01-23T05:10:48.510Z,4.55
2023-01-23T05:13:18.554Z,6.57
2023-01-23T05:15:46.181Z,6.00
2023-01-23T05:18:13.989Z,9.80
2023-01-23T05:20:41.592Z,6.38
2023-01-23T05:23:09.354Z,6.00
2023-01-23T05:25:46.694Z,6.28
2023-01-23T05:28:15.998Z,4.65
2023-01-23T05:30:48.869Z,5.72
2023-01-23T05:33:22.828Z,5.20
2023-01-23T05:35:50.512Z,7.25
2023-01-23T05:38:18.087Z,5.32
2023-01-23T05:40:45.714Z,5.03
2023-01-23T05:43:17.713Z,5.75
2023-01-23T05:46:04.369Z,5.43
2023-01-23T05:48:40.990Z,4.88
2023-01-23T05:51:11.454Z,5.25
2023-01-23T05:53:39.095Z,5.40
2023-01-23T05:56:08.089Z,5.50
2023-01-23T05:58:44.340Z,5.68
2023-01-23T06:01:18.557Z,5.03
2023-01-23T06:04:16.298Z,5.65
2023-01-23T06:06:55.210Z,6.10
2023-01-23T06:09:24.516Z,5.35
2023-01-23T06:11:52.135Z,6.93
2023-01-23T06:14:21.493Z,5.57
2023-01-23T06:16:49.078Z,5.53
2023-01-23T06:19:16.895Z,5.82
2023-01-23T06:21:44.465Z,5.65
2023-01-23T06:24:12.183Z,6.95
2023-01-23T06:26:40.369Z,6.28
2023-01-23T06:29:08.030Z,5.55
2023-01-23T06:31:37.396Z,7.97
2023-01-23T06:34:05.310Z,6.72
2023-01-23T06:36:40.540Z,7.95
2023-01-23T06:39:08.604Z,7.32
2023-01-23T06:41:41.421Z,8.27
2023-01-23T06:44:10.749Z,6.72
2023-01-23T06:46:39.775Z,7.72
2023-01-23T06:49:07.762Z,5.97
2023-01-23T06:51:37.705Z,6.35
2023-01-23T06:54:08.029Z,6.05
2023-01-23T06:56:35.881Z,7.63
2023-01-23T06:59:07.406Z,7.07
2023-01-23T07:01:35.738Z,8.65
2023-01-23T07:04:22.210Z,6.70
2023-01-23T07:06:51.672Z,8.60
2023-01-23T07:09:20.698Z,9.13
2023-01-23T07:12:00.685Z,7.40
2023-01-23T07:14:30.966Z,7.18
2023-01-23T07:16:58.691Z,7.88
2023-01-23T07:19:31.091Z,8.88
2023-01-23T07:22:03.483Z,6.72
2023-01-23T07:24:32.407Z,8.88
2023-01-23T07:26:59.964Z,7.82
2023-01-23T07:29:27.627Z,9.20
2023-01-23T07:31:55.269Z,10.02
2023-01-23T07:34:22.921Z,9.80
2023-01-23T07:36:51.774Z,7.82
2023-01-23T07:39:19.299Z,9.52
2023-01-23T07:41:46.953Z,8.00
2023-01-23T07:44:17.871Z,10.70
2023-01-23T07:46:46.050Z,7.82
2023-01-23T07:49:14.122Z,10.00
2023-01-23T07:51:42.106Z,7.57
2023-01-23T07:54:12.174Z,8.52
2023-01-23T07:56:39.762Z,7.18
2023-01-23T07:59:07.274Z,8.75
2023-01-23T08:01:34.904Z,8.50
2023-01-23T08:04:02.529Z,7.35
2023-01-23T08:06:30.135Z,8.77
2023-01-23T08:08:57.676Z,9.48
2023-01-23T08:11:27.870Z,9.85
2023-01-23T08:13:55.505Z,9.50
2023-01-23T08:16:23.186Z,9.18
2023-01-23T08:18:50.863Z,9.50
2023-01-23T08:21:18.607Z,8.07
2023-01-23T08:23:47.061Z,9.77
2023-01-23T08:26:16.800Z,8.50
2023-01-23T08:28:46.571Z,9.25
2023-01-23T08:31:14.682Z,7.75
2023-01-23T08:33:42.365Z,8.68
2023-01-23T08:36:12.654Z,11.38
2023-01-23T08:38:40.646Z,9.55
2023-01-23T08:41:09.894Z,9.98
2023-01-23T08:43:37.485Z,9.52
2023-01-23T08:46:06.532Z,9.57
2023-01-23T08:48:35.380Z,9.10
2023-01-23T08:51:04.987Z,8.25
2023-01-23T08:53:33.020Z,8.68
2023-01-23T08:56:01.312Z,12.95
2023-01-23T08:58:29.030Z,14.10
2023-01-23T09:00:56.882Z,10.40
2023-01-23T09:03:26.302Z,8.25
2023-01-23T09:05:53.848Z,8.20
2023-01-23T09:08:21.480Z,8.60
2023-01-23T09:10:48.992Z,11.80
2023-01-23T09:13:16.551Z,8.98
2023-01-23T09:15:44.232Z,9.48
2023-01-23T09:18:11.722Z,8.45
2023-01-23T09:20:40.692Z,12.95
2023-01-23T09:23:08.267Z,10.48
2023-01-23T09:25:35.899Z,9.27
2023-01-23T09:28:03.544Z,9.90
2023-01-23T09:30:31.094Z,10.82
2023-01-23T09:32:58.765Z,9.90
2023-01-23T09:35:26.312Z,9.68
2023-01-23T09:38:01.243Z,12.10
2023-01-23T09:40:31.678Z,12.07
2023-01-23T09:43:03.527Z,11.02
2023-01-23T09:45:32.482Z,12.57
2023-01-23T09:48:09.335Z,15.20
2023-01-23T09:50:40.957Z,9.50
2023-01-23T09:53:14.366Z,13.25
2023-01-23T09:55:45.390Z,11.43
2023-01-23T09:58:19.477Z,11.88
2023-01-23T10:00:48.623Z,11.65
2023-01-23T10:03:17.555Z,13.82
2023-01-23T10:06:01.093Z,12.23
2023-01-23T10:08:41.285Z,14.57
2023-01-23T10:11:16.218Z,12.55
2023-01-23T10:13:55.505Z,11.82
2023-01-23T10:16:49.852Z,11.93
2023-01-23T10:19:36.515Z,16.20
2023-01-23T10:22:14.979Z,13.05
2023-01-23T10:24:53.715Z,12.65
2023-01-23T10:27:24.512Z,14.05
2023-01-23T10:29:58.562Z,11.50
2023-01-23T10:32:28.540Z,10.93
2023-01-23T10:34:59.486Z,11.15
2023-01-23T10:37:44.175Z,14.25
2023-01-23T10:40:16.805Z,12.43
2023-01-23T10:42:44.634Z,14.45
2023-01-23T10:45:19.692Z,11.02
2023-01-23T10:47:54.545Z,14.23
2023-01-23T10:50:36.239Z,12.88
2023-01-23T10:53:07.810Z,13.10
2023-01-23T10:55:36.817Z,16.65
2023-01-23T10:58:06.697Z,11.63
2023-01-23T11:00:37.221Z,16.25
2023-01-23T11:03:28.015Z,14.10
2023-01-23T11:05:57.510Z,14.23
2023-01-23T11:08:27.705Z,11.80
2023-01-23T11:11:22.939Z,14.13
2023-01-23T11:14:04.795Z,11.73
2023-01-23T11:16:32.885Z,14.23
2023-01-23T11:19:12.346Z,12.40
2023-01-23T11:21:52.808Z,12.18
2023-01-23T11:24:30.623Z,16.48
2023-01-23T11:27:05.590Z,12.43
2023-01-23T11:29:56.771Z,13.18
2023-01-23T11:32:25.655Z,13.07
2023-01-23T11:35:04.353Z,13.20
2023-01-23T11:37:35.873Z,11.27
2023-01-23T11:40:08.118Z,15.77
2023-01-23T11:42:40.511Z,13.82
2023-01-23T11:45:14.590Z,11.95
2023-01-23T11:47:58.934Z,14.52
2023-01-23T11:50:49.949Z,12.88
2023-01-23T11:53:41.479Z,14.52
2023-01-23T11:56:32.430Z,15.77
2023-01-23T11:59:20.189Z,11.65
2023-01-23T12:02:05.122Z,11.57
2023-01-23T12:05:01.214Z,14.85
2023-01-23T12:07:28.823Z,14.23
2023-01-23T12:10:09.077Z,15.35
2023-01-23T12:12:52.895Z,14.93
2023-01-23T12:15:32.896Z,13.00
2023-01-23T12:18:07.189Z,13.35
2023-01-23T12:20:48.344Z,13.25
2023-01-23T12:23:26.799Z,15.60
2023-01-23T12:26:04.050Z,13.65
2023-01-23T12:28:49.991Z,13.43
2023-01-23T12:31:33.872Z,13.20
2023-01-23T12:34:24.348Z,13.90
2023-01-23T12:37:22.357Z,14.93
2023-01-23T12:40:08.554Z,17.42
2023-01-23T12:42:42.149Z,12.15
2023-01-23T12:45:19.580Z,13.05
2023-01-23T12:47:56.168Z,11.52
2023-01-23T12:50:30.447Z,15.48
2023-01-23T12:53:02.106Z,10.57
2023-01-23T12:55:35.977Z,12.75
2023-01-23T12:58:09.815Z,9.43
2023-01-23T13:01:24.451Z,14.70
2023-01-23T13:03:59.255Z,16.33
2023-01-23T13:06:41.248Z,12.02
2023-01-23T13:09:18.732Z,15.23
2023-01-23T13:11:57.447Z,13.65
2023-01-23T13:15:00.595Z,15.10
2023-01-23T13:17:35.948Z,10.43
2023-01-23T13:20:45.911Z,10.18
2023-01-23T13:23:21.563Z,14.50
2023-01-23T13:25:50.032Z,13.00
2023-01-23T13:28:43.968Z,13.93
2023-01-23T13:31:26.808Z,11.38
2023-01-23T13:34:06.712Z,9.82
2023-01-23T13:36:39.328Z,11.85
2023-01-23T13:39:22.502Z,12.80
2023-01-23T13:41:52.471Z,12.40
2023-01-23T13:44:27.068Z,12.10
2023-01-23T14:26:10.013Z,16.35
2023-01-23T14:28:37.821Z,15.00
2023-01-23T14:31:08.225Z,14.07
2023-01-23T14:33:43.961Z,12.27
2023-01-23T14:36:17.037Z,12.80
2023-01-23T14:38:46.573Z,13.10
2023-01-23T14:41:16.821Z,12.43
2023-01-23T14:43:46.714Z,15.20
2023-01-23T14:46:20.244Z,16.60
2023-01-23T14:48:53.405Z,12.18
2023-01-23T14:51:23.757Z,12.75
2023-01-23T14:53:54.323Z,12.20
2023-01-23T14:56:27.524Z,12.82
2023-01-23T14:58:58.010Z,13.00
2023-01-23T15:01:27.023Z,12.20
2023-01-23T15:03:57.784Z,11.27
2023-01-23T15:06:25.721Z,14.60
2023-01-23T15:08:53.565Z,12.05
2023-01-23T15:11:28.625Z,13.75
2023-01-23T15:14:01.503Z,12.25
2023-01-23T15:16:34.881Z,16.33
2023-01-23T15:19:06.149Z,13.10
2023-01-23T15:21:39.385Z,11.15
2023-01-23T15:24:27.449Z,11.95
2023-01-23T15:27:08.007Z,11.82
2023-01-23T15:29:36.359Z,14.65
2023-01-23T15:32:04.220Z,13.90
2023-01-23T15:34:33.691Z,15.30
2023-01-23T15:37:07.196Z,15.05
2023-01-23T15:39:39.262Z,14.52
2023-01-23T15:42:26.926Z,13.75
2023-01-23T15:44:54.612Z,15.13
2023-01-23T15:47:22.443Z,17.45
2023-01-23T15:49:50.057Z,14.20
2023-01-23T15:52:21.212Z,14.77
2023-01-23T15:54:49.768Z,13.63
2023-01-23T15:57:18.651Z,15.25
2023-01-23T15:59:46.352Z,12.35
2023-01-23T16:02:29.961Z,12.48
2023-01-23T16:04:58.617Z,14.95
2023-01-23T16:07:34.946Z,13.27
2023-01-23T16:10:05.950Z,13.20
2023-01-23T16:12:38.614Z,14.90
2023-01-23T16:15:15.273Z,13.18
2023-01-23T16:17:42.940Z,15.40
2023-01-23T16:20:14.811Z,17.05
2023-01-23T16:22:43.389Z,15.70
2023-01-23T16:25:19.449Z,17.23
2023-01-23T16:27:48.350Z,15.57
2023-01-23T16:30:20.661Z,19.73
2023-01-23T16:32:48.533Z,15.77
2023-01-23T16:35:17.264Z,14.00
2023-01-23T16:37:48.109Z,16.63
2023-01-23T16:40:18.186Z,14.20
2023-01-23T16:42:47.341Z,15.10
2023-01-23T16:45:18.319Z,14.75
2023-01-23T16:47:45.966Z,14.73
2023-01-23T16:50:14.631Z,17.17
2023-01-23T16:52:43.860Z,16.83
2023-01-23T16:55:21.781Z,15.02
2023-01-23T16:57:51.221Z,15.77
2023-01-23T17:00:33.962Z,18.90
2023-01-23T17:03:05.367Z,17.95
2023-01-23T17:05:33.061Z,14.63
2023-01-23T17:08:00.955Z,18.23
2023-01-23T17:10:41.203Z,16.73
2023-01-23T17:13:14.931Z,18.85
2023-01-23T17:15:44.155Z,15.50
2023-01-23T17:18:21.932Z,18.38
2023-01-23T17:20:50.065Z,16.20
2023-01-23T17:23:17.702Z,18.33
2023-01-23T17:25:59.104Z,15.02
2023-01-23T17:28:27.749Z,13.75
2023-01-23T17:31:00.473Z,16.55
2023-01-23T17:33:31.638Z,15.68
2023-01-23T17:36:01.026Z,17.02
2023-01-23T17:38:31.712Z,16.70
2023-01-23T17:40:59.642Z,14.27
2023-01-23T17:43:27.169Z,17.73
2023-01-23T17:45:56.420Z,16.17
2023-01-23T17:48:27.924Z,15.88
2023-01-23T17:50:55.853Z,16.42
2023-01-23T17:53:23.764Z,16.17
2023-01-23T17:55:52.860Z,18.45
2023-01-23T17:58:21.242Z,17.25
2023-01-23T18:00:52.242Z,17.67
2023-01-23T18:03:22.953Z,15.82
2023-01-23T18:05:50.500Z,17.60
2023-01-23T18:08:19.990Z,17.15
2023-01-23T18:10:50.377Z,16.90
2023-01-23T18:13:21.305Z,16.77
2023-01-23T18:16:02.834Z,17.08
2023-01-23T18:18:33.661Z,20.67
2023-01-23T18:21:02.999Z,15.52
2023-01-23T18:23:33.297Z,13.95
2023-01-23T18:26:11.192Z,17.35
2023-01-23T18:28:47.052Z,17.95
2023-01-23T18:31:21.846Z,17.17
2023-01-23T18:34:02.360Z,16.75
2023-01-23T18:36:42.384Z,17.55
2023-01-23T18:39:38.554Z,14.00
2023-01-23T18:42:17.004Z,19.15
2023-01-23T18:44:51.696Z,16.90
2023-01-23T18:47:19.975Z,18.92
2023-01-23T18:49:49.463Z,20.45
2023-01-23T18:52:22.963Z,16.40
2023-01-23T18:54:59.596Z,22.00
2023-01-23T18:57:52.313Z,17.77
2023-01-23T19:00:24.670Z,17.33
2023-01-23T19:02:55.261Z,19.08
2023-01-23T19:05:30.614Z,18.85
2023-01-23T19:07:59.733Z,17.90
2023-01-23T19:10:32.500Z,23.23
2023-01-23T19:13:18.445Z,18.00
2023-01-23T19:15:53.521Z,17.48
2023-01-23T19:18:40.805Z,21.65
2023-01-23T19:21:15.713Z,20.58
2023-01-23T19:23:50.260Z,17.42
2023-01-23T19:26:18.748Z,22.27
2023-01-23T19:28:46.787Z,17.15
2023-01-23T19:31:21.341Z,20.55
2023-01-23T19:33:49.301Z,21.77
2023-01-23T19:36:18.425Z,18.58
2023-01-23T19:38:46.065Z,19.42
2023-01-23T19:41:20.404Z,19.20
2023-01-23T19:43:49.872Z,19.60
2023-01-23T19:46:17.861Z,19.45
2023-01-23T19:48:45.590Z,21.95
2023-01-23T19:51:15.345Z,17.73
2023-01-23T19:53:44.874Z,21.42
2023-01-23T19:56:13.964Z,20.65
2023-01-23T19:58:42.284Z,22.08
2023-01-23T20:01:22.645Z,20.95
2023-01-23T20:03:50.442Z,20.88
2023-01-23T20:06:18.030Z,21.25
2023-01-23T20:08:46.932Z,20.23
2023-01-23T20:11:14.478Z,23.48
2023-01-23T20:13:42.680Z,22.55
2023-01-23T20:16:15.006Z,25.10
2023-01-23T20:18:42.718Z,25.85
2023-01-23T20:21:10.621Z,24.48
2023-01-23T20:23:38.165Z,22.23
2023-01-23T20:26:07.173Z,22.77
2023-01-23T20:28:35.709Z,23.45
2023-01-23T20:31:05.037Z,23.95
2023-01-23T20:33:32.746Z,19.17
2023-01-23T20:36:00.661Z,20.00
2023-01-23T20:38:28.560Z,21.05
2023-01-23T20:40:56.172Z,24.65
2023-01-23T20:43:25.038Z,21.70
2023-01-23T20:45:53.985Z,23.00
2023-01-23T20:48:21.659Z,21.15
2023-01-23T20:50:55.181Z,22.75
2023-01-23T20:53:30.982Z,20.10
2023-01-23T20:56:00.284Z,21.00
2023-01-23T20:58:47.008Z,22.83
2023-01-23T21:01:14.656Z,21.13
2023-01-23T21:03:42.353Z,22.90
2023-01-23T21:06:11.038Z,20.80
2023-01-23T21:08:39.139Z,20.00
2023-01-23T21:11:07.592Z,22.85
2023-01-23T21:13:37.659Z,21.08
2023-01-23T21:16:07.858Z,20.08
2023-01-23T21:18:36.909Z,20.25
2023-01-23T21:21:07.176Z,21.25
2023-01-23T21:23:35.404Z,20.55
2023-01-23T21:26:04.348Z,20.13
2023-01-23T21:28:35.089Z,21.02
2023-01-23T21:31:09.889Z,23.40
2023-01-23T21:33:37.837Z,21.77
2023-01-23T21:36:05.777Z,24.08
2023-01-23T21:38:33.571Z,24.08
2023-01-23T21:41:01.168Z,23.95
2023-01-23T21:43:28.743Z,17.80
2023-01-23T21:45:56.959Z,23.33
2023-01-23T21:48:26.337Z,19.58
2023-01-23T21:50:53.867Z,22.15
2023-01-23T21:53:21.466Z,21.83
2023-01-23T21:55:52.511Z,21.13
2023-01-23T21:58:20.038Z,21.80
2023-01-23T22:01:05.387Z,21.63
2023-01-23T22:03:36.345Z,21.75
2023-01-23T22:06:03.946Z,20.73
2023-01-23T22:08:31.614Z,24.88
2023-01-23T22:10:59.281Z,21.55
2023-01-23T22:13:26.955Z,21.45
2023-01-23T22:15:54.610Z,23.13
2023-01-23T22:18:22.344Z,24.30
2023-01-23T22:20:55.434Z,18.45
2023-01-23T22:23:23.482Z,24.17
2023-01-23T22:25:51.558Z,22.10
2023-01-23T22:28:19.118Z,24.08
2023-01-23T22:30:46.714Z,22.95
2023-01-23T22:33:14.304Z,22.98
2023-01-23T22:35:42.938Z,23.40
2023-01-23T22:38:13.190Z,23.95
2023-01-23T22:40:41.039Z,23.48
2023-01-23T22:43:10.312Z,23.10
2023-01-23T22:45:37.874Z,23.92
2023-01-23T22:48:05.910Z,25.98
2023-01-23T22:50:33.498Z,20.20
2023-01-23T22:53:01.296Z,23.75
2023-01-23T22:55:30.145Z,21.25
2023-01-23T22:57:57.747Z,23.25
2023-01-23T23:00:25.590Z,24.60
2023-01-23T23:02:53.188Z,22.92
2023-01-23T23:05:20.952Z,22.75
2023-01-23T23:07:48.698Z,21.08
2023-01-23T23:10:16.253Z,22.05
2023-01-23T23:12:45.169Z,23.58
2023-01-23T23:15:12.735Z,22.35
2023-01-23T23:17:40.361Z,23.05
2023-01-23T23:20:09.266Z,26.08
2023-01-23T23:22:36.772Z,21.77
2023-01-23T23:25:04.445Z,21.90
2023-01-23T23:27:32.036Z,23.15
2023-01-23T23:30:00.902Z,22.20
2023-01-23T23:32:28.575Z,23.50
2023-01-23T23:34:56.502Z,22.45
2023-01-23T23:37:24.029Z,20.85
2023-01-23T23:39:51.676Z,22.38
2023-01-23T23:42:19.184Z,26.50
2023-01-23T23:44:46.695Z,22.67
2023-01-23T23:47:15.617Z,21.67
2023-01-23T23:49:43.115Z,23.35
2023-01-23T23:52:10.630Z,21.52
2023-01-23T23:54:38.250Z,18.67
2023-01-23T23:57:05.786Z,23.63
2023-01-23T23:59:33.340Z,21.92
